sensor_id;sensor_type;location;lat;lon;timestamp;pressure;altitude;pressure_sealevel;temperature;humidity
8061;BME280;4073;42.626;25.386;2023-03-03T00:02:16;97434.47;;;5.41;100.00
8061;BME280;4073;42.626;25.386;2023-03-03T00:04:42;97430.81;;;5.43;100.00
8061;BME280;4073;42.626;25.386;2023-03-03T00:07:07;97424.44;;;5.43;100.00
8061;BME280;4073;42.626;25.386;2023-03-03T00:09:33;97417.09;;;5.46;100.00
8061;BME280;4073;42.626;25.386;2023-03-03T00:11:59;97418.91;;;5.45;100.00
8061;BME280;4073;42.626;25.386;2023-03-03T00:14:31;97402.09;;;5.39;100.00
8061;BME280;4073;42.626;25.386;2023-03-03T00:17:00;97408.69;;;5.37;100.00
8061;BME280;4073;42.626;25.386;2023-03-03T00:19:26;97407.75;;;5.31;100.00
8061;BME280;4073;42.626;25.386;2023-03-03T00:21:52;97393.94;;;5.29;100.00
8061;BME280;4073;42.626;25.386;2023-03-03T00:32:06;97380.69;;;5.29;100.00
8061;BME280;4073;42.626;25.386;2023-03-03T00:34:34;97371.47;;;5.09;100.00
8061;BME280;4073;42.626;25.386;2023-03-03T00:37:00;97376.91;;;5.14;100.00
8061;BME280;4073;42.626;25.386;2023-03-03T00:41:57;97367.66;;;5.16;100.00
8061;BME280;4073;42.626;25.386;2023-03-03T00:44:38;97362.13;;;5.18;100.00
8061;BME280;4073;42.626;25.386;2023-03-03T00:52:49;97335.06;;;5.04;100.00
8061;BME280;4073;42.626;25.386;2023-03-03T00:55:17;97333.13;;;5.11;100.00
8061;BME280;4073;42.626;25.386;2023-03-03T00:57:42;97335.72;;;5.23;100.00
8061;BME280;4073;42.626;25.386;2023-03-03T01:00:08;97332.97;;;5.29;100.00
8061;BME280;4073;42.626;25.386;2023-03-03T01:02:34;97335.69;;;5.34;100.00
8061;BME280;4073;42.626;25.386;2023-03-03T01:04:59;97333.63;;;5.36;100.00
8061;BME280;4073;42.626;25.386;2023-03-03T01:07:25;97326.25;;;5.38;100.00
8061;BME280;4073;42.626;25.386;2023-03-03T01:09:50;97331.88;;;5.42;100.00
8061;BME280;4073;42.626;25.386;2023-03-03T01:12:16;97319.56;;;5.36;100.00
8061;BME280;4073;42.626;25.386;2023-03-03T01:14:41;97320.47;;;5.41;100.00
8061;BME280;4073;42.626;25.386;2023-03-03T01:17:07;97323.47;;;5.45;100.00
8061;BME280;4073;42.626;25.386;2023-03-03T01:19:33;97335.13;;;5.44;100.00
8061;BME280;4073;42.626;25.386;2023-03-03T01:21:58;97331.66;;;5.43;100.00
8061;BME280;4073;42.626;25.386;2023-03-03T01:24:24;97320.00;;;5.44;100.00
8061;BME280;4073;42.626;25.386;2023-03-03T01:26:49;97320.22;;;5.43;100.00
8061;BME280;4073;42.626;25.386;2023-03-03T01:29:15;97325.22;;;5.39;100.00
8061;BME280;4073;42.626;25.386;2023-03-03T01:31:40;97331.41;;;5.45;100.00
8061;BME280;4073;42.626;25.386;2023-03-03T01:34:05;97322.19;;;5.47;100.00
8061;BME280;4073;42.626;25.386;2023-03-03T01:36:31;97319.28;;;5.49;100.00
8061;BME280;4073;42.626;25.386;2023-03-03T01:38:58;97314.81;;;5.50;100.00
8061;BME280;4073;42.626;25.386;2023-03-03T01:41:27;97310.78;;;5.47;100.00
8061;BME280;4073;42.626;25.386;2023-03-03T01:43:54;97312.72;;;5.52;100.00
8061;BME280;4073;42.626;25.386;2023-03-03T01:48:49;97321.94;;;5.49;100.00
8061;BME280;4073;42.626;25.386;2023-03-03T01:53:47;97319.53;;;5.47;100.00
8061;BME280;4073;42.626;25.386;2023-03-03T01:56:14;97312.84;;;5.45;100.00
8061;BME280;4073;42.626;25.386;2023-03-03T01:58:44;97301.00;;;5.36;100.00
8061;BME280;4073;42.626;25.386;2023-03-03T02:01:14;97314.47;;;5.46;100.00
8061;BME280;4073;42.626;25.386;2023-03-03T02:03:42;97325.06;;;5.46;100.00
8061;BME280;4073;42.626;25.386;2023-03-03T02:06:13;97322.88;;;5.43;100.00
8061;BME280;4073;42.626;25.386;2023-03-03T02:11:21;97319.56;;;5.36;100.00
8061;BME280;4073;42.626;25.386;2023-03-03T02:13:47;97332.59;;;5.37;100.00
8061;BME280;4073;42.626;25.386;2023-03-03T02:16:12;97325.69;;;5.36;100.00
8061;BME280;4073;42.626;25.386;2023-03-03T02:18:38;97327.28;;;5.37;100.00
8061;BME280;4073;42.626;25.386;2023-03-03T02:21:30;97328.91;;;5.38;100.00
8061;BME280;4073;42.626;25.386;2023-03-03T02:24:21;97333.72;;;5.41;100.00
8061;BME280;4073;42.626;25.386;2023-03-03T02:26:50;97327.63;;;5.41;100.00
8061;BME280;4073;42.626;25.386;2023-03-03T02:29:15;97324.88;;;5.36;100.00
8061;BME280;4073;42.626;25.386;2023-03-03T02:31:40;97338.78;;;5.43;100.00
8061;BME280;4073;42.626;25.386;2023-03-03T02:34:07;97329.00;;;5.43;100.00
8061;BME280;4073;42.626;25.386;2023-03-03T02:36:35;97331.88;;;5.42;100.00
8061;BME280;4073;42.626;25.386;2023-03-03T02:39:17;97333.50;;;5.43;100.00
8061;BME280;4073;42.626;25.386;2023-03-03T02:44:24;97337.53;;;5.46;100.00
8061;BME280;4073;42.626;25.386;2023-03-03T02:46:51;97325.88;;;5.47;100.00
8061;BME280;4073;42.626;25.386;2023-03-03T02:49:21;97322.09;;;5.43;100.00
8061;BME280;4073;42.626;25.386;2023-03-03T02:51:46;97328.84;;;5.50;100.00
8061;BME280;4073;42.626;25.386;2023-03-03T02:54:14;97320.22;;;5.43;100.00
8061;BME280;4073;42.626;25.386;2023-03-03T02:56:40;97330.47;;;5.51;100.00
8061;BME280;4073;42.626;25.386;2023-03-03T02:59:06;97331.03;;;5.53;100.00
8061;BME280;4073;42.626;25.386;2023-03-03T03:01:32;97330.81;;;5.55;100.00
8061;BME280;4073;42.626;25.386;2023-03-03T03:04:06;97333.47;;;5.55;100.00
8061;BME280;4073;42.626;25.386;2023-03-03T03:06:32;97329.78;;;5.56;100.00
8061;BME280;4073;42.626;25.386;2023-03-03T03:08:58;97329.78;;;5.56;100.00
8061;BME280;4073;42.626;25.386;2023-03-03T03:11:25;97332.44;;;5.56;100.00
8061;BME280;4073;42.626;25.386;2023-03-03T03:13:50;97328.97;;;5.55;100.00
8061;BME280;4073;42.626;25.386;2023-03-03T03:16:17;97326.31;;;5.55;100.00
8061;BME280;4073;42.626;25.386;2023-03-03T03:18:42;97315.94;;;5.54;100.00
8061;BME280;4073;42.626;25.386;2023-03-03T03:21:09;97321.13;;;5.48;100.00
8061;BME280;4073;42.626;25.386;2023-03-03T03:23:35;97320.81;;;5.45;100.00
8061;BME280;4073;42.626;25.386;2023-03-03T03:26:01;97313.69;;;5.46;100.00
8061;BME280;4073;42.626;25.386;2023-03-03T03:28:26;97317.34;;;5.44;100.00
8061;BME280;4073;42.626;25.386;2023-03-03T03:30:52;97308.59;;;5.44;100.00
8061;BME280;4073;42.626;25.386;2023-03-03T03:33:17;97306.19;;;5.43;100.00
8061;BME280;4073;42.626;25.386;2023-03-03T03:35:43;97305.38;;;5.42;100.00
8061;BME280;4073;42.626;25.386;2023-03-03T03:38:11;97313.91;;;5.44;100.00
8061;BME280;4073;42.626;25.386;2023-03-03T03:40:37;97304.56;;;5.41;100.00
8061;BME280;4073;42.626;25.386;2023-03-03T03:43:02;97324.28;;;5.46;100.00
8061;BME280;4073;42.626;25.386;2023-03-03T03:45:28;97311.25;;;5.44;100.00
8061;BME280;4073;42.626;25.386;2023-03-03T03:47:54;97317.16;;;5.34;100.00
8061;BME280;4073;42.626;25.386;2023-03-03T03:50:19;97309.19;;;5.34;100.00
8061;BME280;4073;42.626;25.386;2023-03-03T03:52:45;97310.59;;;5.37;100.00
8061;BME280;4073;42.626;25.386;2023-03-03T03:55:10;97317.72;;;5.36;100.00
8061;BME280;4073;42.626;25.386;2023-03-03T03:57:36;97313.34;;;5.30;100.00
8061;BME280;4073;42.626;25.386;2023-03-03T04:00:03;97311.09;;;5.22;100.00
8061;BME280;4073;42.626;25.386;2023-03-03T04:02:29;97302.47;;;5.15;100.00
8061;BME280;4073;42.626;25.386;2023-03-03T04:04:54;97304.22;;;4.98;100.00
8061;BME280;4073;42.626;25.386;2023-03-03T04:07:20;97298.91;;;4.98;100.00
8061;BME280;4073;42.626;25.386;2023-03-03T04:09:45;97302.94;;;5.01;100.00
8061;BME280;4073;42.626;25.386;2023-03-03T04:12:10;97307.44;;;5.00;100.00
8061;BME280;4073;42.626;25.386;2023-03-03T04:14:37;97314.13;;;5.03;100.00
8061;BME280;4073;42.626;25.386;2023-03-03T04:17:02;97313.63;;;5.06;100.00
8061;BME280;4073;42.626;25.386;2023-03-03T04:19:28;97310.19;;;5.05;100.00
8061;BME280;4073;42.626;25.386;2023-03-03T04:21:53;97310.66;;;5.02;100.00
8061;BME280;4073;42.626;25.386;2023-03-03T04:24:18;97308.00;;;5.02;100.00
8061;BME280;4073;42.626;25.386;2023-03-03T04:26:44;97318.03;;;5.00;100.00
8061;BME280;4073;42.626;25.386;2023-03-03T04:29:10;97319.66;;;5.01;100.00
8061;BME280;4073;42.626;25.386;2023-03-03T04:31:35;97321.81;;;5.04;100.00
8061;BME280;4073;42.626;25.386;2023-03-03T04:34:01;97326.09;;;5.05;100.00
8061;BME280;4073;42.626;25.386;2023-03-03T04:36:26;97312.94;;;4.99;100.00
8061;BME280;4073;42.626;25.386;2023-03-03T04:38:51;97321.94;;;5.09;100.00
8061;BME280;4073;42.626;25.386;2023-03-03T04:41:17;97328.59;;;5.12;100.00
8061;BME280;4073;42.626;25.386;2023-03-03T04:43:42;97325.41;;;5.10;100.00
8061;BME280;4073;42.626;25.386;2023-03-03T04:46:08;97333.81;;;5.07;100.00
8061;BME280;4073;42.626;25.386;2023-03-03T04:48:33;97331.28;;;5.00;100.00
8061;BME280;4073;42.626;25.386;2023-03-03T04:50:59;97317.00;;;5.01;100.00
8061;BME280;4073;42.626;25.386;2023-03-03T04:53:24;97324.72;;;5.03;100.00
8061;BME280;4073;42.626;25.386;2023-03-03T04:55:51;97332.91;;;5.01;100.00
8061;BME280;4073;42.626;25.386;2023-03-03T04:58:17;97336.09;;;5.03;100.00
8061;BME280;4073;42.626;25.386;2023-03-03T05:00:44;97336.94;;;5.04;100.00
8061;BME280;4073;42.626;25.386;2023-03-03T05:03:11;97334.28;;;5.04;100.00
8061;BME280;4073;42.626;25.386;2023-03-03T05:05:37;97341.75;;;5.07;100.00
8061;BME280;4073;42.626;25.386;2023-03-03T05:08:02;97344.28;;;5.02;100.00
8061;BME280;4073;42.626;25.386;2023-03-03T05:10:28;97341.19;;;5.05;100.00
8061;BME280;4073;42.626;25.386;2023-03-03T05:12:54;97339.13;;;4.95;100.00
8061;BME280;4073;42.626;25.386;2023-03-03T05:15:19;97338.53;;;5.05;100.00
8061;BME280;4073;42.626;25.386;2023-03-03T05:17:45;97328.28;;;5.08;100.00
8061;BME280;4073;42.626;25.386;2023-03-03T05:20:11;97333.34;;;5.10;100.00
8061;BME280;4073;42.626;25.386;2023-03-03T05:22:37;97327.00;;;5.11;100.00
8061;BME280;4073;42.626;25.386;2023-03-03T05:25:03;97327.00;;;5.11;100.00
8061;BME280;4073;42.626;25.386;2023-03-03T05:27:28;97336.09;;;5.03;100.00
8061;BME280;4073;42.626;25.386;2023-03-03T05:29:54;97327.81;;;5.11;100.00
8061;BME280;4073;42.626;25.386;2023-03-03T05:32:19;97323.75;;;5.20;100.00
8061;BME280;4073;42.626;25.386;2023-03-03T05:34:45;97323.97;;;5.19;100.00
8061;BME280;4073;42.626;25.386;2023-03-03T05:37:10;97315.47;;;5.17;100.00
8061;BME280;4073;42.626;25.386;2023-03-03T05:39:36;97288.53;;;5.08;100.00
8061;BME280;4073;42.626;25.386;2023-03-03T05:42:01;97318.59;;;5.14;100.00
8061;BME280;4073;42.626;25.386;2023-03-03T05:44:27;97324.44;;;5.16;100.00
8061;BME280;4073;42.626;25.386;2023-03-03T05:46:53;97320.63;;;5.23;100.00
8061;BME280;4073;42.626;25.386;2023-03-03T05:49:20;97324.66;;;5.26;100.00
8061;BME280;4073;42.626;25.386;2023-03-03T05:51:46;97327.19;;;5.32;100.00
8061;BME280;4073;42.626;25.386;2023-03-03T05:54:11;97319.78;;;5.34;100.00
8061;BME280;4073;42.626;25.386;2023-03-03T05:56:37;97314.41;;;5.29;100.00
8061;BME280;4073;42.626;25.386;2023-03-03T05:59:02;97310.47;;;5.32;100.00
8061;BME280;4073;42.626;25.386;2023-03-03T06:01:27;97318.78;;;5.35;100.00
8061;BME280;4073;42.626;25.386;2023-03-03T06:03:53;97305.28;;;5.37;100.00
8061;BME280;4073;42.626;25.386;2023-03-03T06:06:18;97307.44;;;5.40;100.00
8061;BME280;4073;42.626;25.386;2023-03-03T06:08:44;97311.03;;;5.46;100.00
8061;BME280;4073;42.626;25.386;2023-03-03T06:11:10;97315.59;;;5.50;100.00
8061;BME280;4073;42.626;25.386;2023-03-03T06:13:36;97308.81;;;5.54;100.00
8061;BME280;4073;42.626;25.386;2023-03-03T06:16:01;97310.63;;;5.54;100.00
8061;BME280;4073;42.626;25.386;2023-03-03T06:18:27;97308.88;;;5.59;100.00
8061;BME280;4073;42.626;25.386;2023-03-03T06:20:53;97313.72;;;5.62;100.00
8061;BME280;4073;42.626;25.386;2023-03-03T06:23:19;97316.97;;;5.64;100.00
8061;BME280;4073;42.626;25.386;2023-03-03T06:25:45;97311.16;;;5.67;100.00
8061;BME280;4073;42.626;25.386;2023-03-03T06:28:11;97306.44;;;5.69;100.00
8061;BME280;4073;42.626;25.386;2023-03-03T06:30:37;97310.69;;;5.70;100.00
8061;BME280;4073;42.626;25.386;2023-03-03T06:33:02;97314.47;;;5.74;100.00
8061;BME280;4073;42.626;25.386;2023-03-03T06:35:28;97315.03;;;5.76;100.00
8061;BME280;4073;42.626;25.386;2023-03-03T06:37:53;97329.91;;;5.77;100.00
8061;BME280;4073;42.626;25.386;2023-03-03T06:40:19;97326.47;;;5.77;100.00
8061;BME280;4073;42.626;25.386;2023-03-03T06:42:44;97325.66;;;5.76;100.00
8061;BME280;4073;42.626;25.386;2023-03-03T06:45:10;97332.00;;;5.75;100.00
8061;BME280;4073;42.626;25.386;2023-03-03T06:47:36;97336.03;;;5.78;100.00
8061;BME280;4073;42.626;25.386;2023-03-03T06:50:01;97338.44;;;5.79;100.00
8061;BME280;4073;42.626;25.386;2023-03-03T06:52:27;97339.38;;;5.85;100.00
8061;BME280;4073;42.626;25.386;2023-03-03T06:54:54;97330.50;;;5.79;100.00
8061;BME280;4073;42.626;25.386;2023-03-03T06:57:29;97339.84;;;5.82;100.00
8061;BME280;4073;42.626;25.386;2023-03-03T07:00:25;97346.41;;;5.79;100.00
8061;BME280;4073;42.626;25.386;2023-03-03T07:02:57;97347.22;;;5.80;100.00
8061;BME280;4073;42.626;25.386;2023-03-03T07:05:25;97341.09;;;5.79;100.00
8061;BME280;4073;42.626;25.386;2023-03-03T07:07:54;97349.03;;;5.91;100.00
8061;BME280;4073;42.626;25.386;2023-03-03T07:10:26;97352.34;;;5.98;100.00
8061;BME280;4073;42.626;25.386;2023-03-03T07:12:52;97348.19;;;6.02;100.00
8061;BME280;4073;42.626;25.386;2023-03-03T07:15:29;97351.06;;;6.00;100.00
8061;BME280;4073;42.626;25.386;2023-03-03T07:17:57;97349.78;;;6.03;100.00
8061;BME280;4073;42.626;25.386;2023-03-03T07:20:29;97352.53;;;6.08;100.00
8061;BME280;4073;42.626;25.386;2023-03-03T07:22:57;97349.41;;;6.11;100.00
8061;BME280;4073;42.626;25.386;2023-03-03T07:25:33;97330.59;;;6.12;100.00
8061;BME280;4073;42.626;25.386;2023-03-03T07:28:22;97338.31;;;6.14;100.00
8061;BME280;4073;42.626;25.386;2023-03-03T07:30:48;97326.66;;;6.15;100.00
8061;BME280;4073;42.626;25.386;2023-03-03T07:33:24;97325.84;;;6.14;100.00
8061;BME280;4073;42.626;25.386;2023-03-03T07:35:51;97322.47;;;6.19;100.00
8061;BME280;4073;42.626;25.386;2023-03-03T07:38:59;97320.16;;;6.22;100.00
8061;BME280;4073;42.626;25.386;2023-03-03T07:41:26;97315.63;;;6.23;100.00
8061;BME280;4073;42.626;25.386;2023-03-03T07:43:54;97322.00;;;6.22;100.00
8061;BME280;4073;42.626;25.386;2023-03-03T07:48:56;97323.03;;;6.21;100.00
8061;BME280;4073;42.626;25.386;2023-03-03T07:51:25;97298.41;;;6.09;100.00
8061;BME280;4073;42.626;25.386;2023-03-03T07:54:00;97311.13;;;6.23;100.00
8061;BME280;4073;42.626;25.386;2023-03-03T07:56:39;97310.06;;;6.24;100.00
8061;BME280;4073;42.626;25.386;2023-03-03T07:59:24;97310.91;;;6.25;100.00
8061;BME280;4073;42.626;25.386;2023-03-03T08:01:54;97300.59;;;6.28;100.00
8061;BME280;4073;42.626;25.386;2023-03-03T08:04:41;97316.03;;;6.31;100.00
8061;BME280;4073;42.626;25.386;2023-03-03T08:07:14;97312.91;;;6.34;100.00
8061;BME280;4073;42.626;25.386;2023-03-03T08:09:55;97309.19;;;6.35;100.00
8061;BME280;4073;42.626;25.386;2023-03-03T08:12:41;97310.34;;;6.39;100.00
8061;BME280;4073;42.626;25.386;2023-03-03T08:15:29;97313.16;;;6.49;100.00
8061;BME280;4073;42.626;25.386;2023-03-03T08:17:55;97310.00;;;6.52;100.00
8061;BME280;4073;42.626;25.386;2023-03-03T08:22:58;97309.03;;;6.58;100.00
8061;BME280;4073;42.626;25.386;2023-03-03T08:25:24;97288.84;;;6.57;100.00
8061;BME280;4073;42.626;25.386;2023-03-03T08:27:49;97290.19;;;6.60;100.00
8061;BME280;4073;42.626;25.386;2023-03-03T08:30:15;97318.22;;;6.67;100.00
8061;BME280;4073;42.626;25.386;2023-03-03T08:32:40;97305.75;;;6.68;100.00
8061;BME280;4073;42.626;25.386;2023-03-03T08:35:06;97303.72;;;6.75;100.00
8061;BME280;4073;42.626;25.386;2023-03-03T08:37:31;97300.88;;;6.81;100.00
8061;BME280;4073;42.626;25.386;2023-03-03T08:39:57;97297.72;;;6.84;100.00
8061;BME280;4073;42.626;25.386;2023-03-03T08:42:22;97304.97;;;6.89;100.00
8061;BME280;4073;42.626;25.386;2023-03-03T08:44:48;97293.63;;;6.93;100.00
8061;BME280;4073;42.626;25.386;2023-03-03T08:47:13;97299.63;;;7.05;100.00
8061;BME280;4073;42.626;25.386;2023-03-03T08:49:38;97301.53;;;7.10;100.00
8061;BME280;4073;42.626;25.386;2023-03-03T08:52:04;97290.81;;;7.05;100.00
8061;BME280;4073;42.626;25.386;2023-03-03T08:54:30;97295.38;;;7.26;100.00
8061;BME280;4073;42.626;25.386;2023-03-03T08:56:55;97299.13;;;7.30;100.00
8061;BME280;4073;42.626;25.386;2023-03-03T08:59:20;97303.88;;;7.28;100.00
8061;BME280;4073;42.626;25.386;2023-03-03T09:01:46;97297.94;;;7.21;100.00
8061;BME280;4073;42.626;25.386;2023-03-03T09:04:11;97296.84;;;7.17;100.00
8061;BME280;4073;42.626;25.386;2023-03-03T09:06:37;97280.88;;;7.17;100.00
8061;BME280;4073;42.626;25.386;2023-03-03T09:09:03;97291.16;;;7.30;100.00
8061;BME280;4073;42.626;25.386;2023-03-03T09:11:29;97292.38;;;7.44;100.00
8061;BME280;4073;42.626;25.386;2023-03-03T09:14:14;97301.31;;;7.54;100.00
8061;BME280;4073;42.626;25.386;2023-03-03T09:16:58;97283.28;;;7.61;100.00
8061;BME280;4073;42.626;25.386;2023-03-03T09:19:32;97292.59;;;7.85;100.00
8061;BME280;4073;42.626;25.386;2023-03-03T09:22:22;97276.25;;;8.03;100.00
8061;BME280;4073;42.626;25.386;2023-03-03T09:24:49;97280.59;;;8.15;100.00
8061;BME280;4073;42.626;25.386;2023-03-03T09:27:21;97281.16;;;8.17;100.00
8061;BME280;4073;42.626;25.386;2023-03-03T09:29:48;97287.94;;;8.24;100.00
8061;BME280;4073;42.626;25.386;2023-03-03T09:34:49;97275.97;;;8.32;100.00
8061;BME280;4073;42.626;25.386;2023-03-03T09:37:21;97271.56;;;8.47;100.00
8061;BME280;4073;42.626;25.386;2023-03-03T09:39:49;97271.63;;;8.52;100.00
8061;BME280;4073;42.626;25.386;2023-03-03T09:42:54;97275.28;;;8.46;100.00
8061;BME280;4073;42.626;25.386;2023-03-03T09:46:03;97278.78;;;8.47;100.00
8061;BME280;4073;42.626;25.386;2023-03-03T09:48:51;97265.63;;;8.35;100.00
8061;BME280;4073;42.626;25.386;2023-03-03T09:56:38;97269.03;;;8.26;100.00
8061;BME280;4073;42.626;25.386;2023-03-03T10:04:45;97270.66;;;8.32;100.00
8061;BME280;4073;42.626;25.386;2023-03-03T10:21:01;97250.38;;;8.67;100.00
8061;BME280;4073;42.626;25.386;2023-03-03T10:23:51;97247.25;;;8.75;100.00
8061;BME280;4073;42.626;25.386;2023-03-03T10:26:37;97252.09;;;8.88;100.00
8061;BME280;4073;42.626;25.386;2023-03-03T10:37:17;97227.63;;;8.96;100.00
8061;BME280;4073;42.626;25.386;2023-03-03T10:40:06;97217.53;;;9.03;100.00
8061;BME280;4073;42.626;25.386;2023-03-03T10:45:42;97209.34;;;9.25;100.00
8061;BME280;4073;42.626;25.386;2023-03-03T10:54:34;97198.66;;;9.20;100.00
8061;BME280;4073;42.626;25.386;2023-03-03T10:57:28;97191.94;;;9.07;100.00
8061;BME280;4073;42.626;25.386;2023-03-03T11:05:57;97190.31;;;9.01;100.00
8061;BME280;4073;42.626;25.386;2023-03-03T11:08:42;97177.50;;;8.93;100.00
8061;BME280;4073;42.626;25.386;2023-03-03T11:11:23;97176.69;;;8.88;100.00
8061;BME280;4073;42.626;25.386;2023-03-03T11:16:44;97168.59;;;8.73;100.00
8061;BME280;4073;42.626;25.386;2023-03-03T11:19:28;97180.81;;;8.64;100.00
8061;BME280;4073;42.626;25.386;2023-03-03T11:30:28;97176.13;;;8.34;100.00
8061;BME280;4073;42.626;25.386;2023-03-03T11:33:21;97177.44;;;8.32;100.00
8061;BME280;4073;42.626;25.386;2023-03-03T11:41:03;97179.91;;;8.12;100.00
8061;BME280;4073;42.626;25.386;2023-03-03T11:43:38;97183.38;;;8.12;100.00
8061;BME280;4073;42.626;25.386;2023-03-03T11:46:12;97181.53;;;8.13;100.00
8061;BME280;4073;42.626;25.386;2023-03-03T11:51:22;97176.78;;;8.20;100.00
8061;BME280;4073;42.626;25.386;2023-03-03T11:53:58;97164.03;;;8.22;100.00
8061;BME280;4073;42.626;25.386;2023-03-03T11:56:42;97170.75;;;8.24;100.00
8061;BME280;4073;42.626;25.386;2023-03-03T12:05:03;97178.00;;;8.02;100.00
8061;BME280;4073;42.626;25.386;2023-03-03T12:12:44;97172.84;;;7.90;100.00
8061;BME280;4073;42.626;25.386;2023-03-03T12:18:30;97165.00;;;7.74;100.00
8061;BME280;4073;42.626;25.386;2023-03-03T12:21:09;97171.91;;;7.75;100.00
8061;BME280;4073;42.626;25.386;2023-03-03T12:23:56;97165.03;;;7.79;100.00
8061;BME280;4073;42.626;25.386;2023-03-03T12:29:09;97154.69;;;7.82;100.00
8061;BME280;4073;42.626;25.386;2023-03-03T12:31:59;97154.75;;;7.92;100.00
8061;BME280;4073;42.626;25.386;2023-03-03T12:34:43;97160.59;;;7.89;100.00
8061;BME280;4073;42.626;25.386;2023-03-03T12:37:25;97157.38;;;7.87;100.00
8061;BME280;4073;42.626;25.386;2023-03-03T12:40:00;97159.50;;;7.85;100.00
8061;BME280;4073;42.626;25.386;2023-03-03T12:42:52;97155.22;;;7.84;100.00
8061;BME280;4073;42.626;25.386;2023-03-03T12:56:00;97148.03;;;7.80;100.00
8061;BME280;4073;42.626;25.386;2023-03-03T12:58:36;97148.56;;;7.82;100.00
8061;BME280;4073;42.626;25.386;2023-03-03T13:12:05;97138.50;;;7.89;100.00
8061;BME280;4073;42.626;25.386;2023-03-03T13:14:15;97133.13;;;7.84;100.00
8061;BME280;4073;42.626;25.386;2023-03-03T13:16:59;97127.00;;;7.83;100.00
8061;BME280;4073;42.626;25.386;2023-03-03T13:19:32;97143.81;;;7.89;100.00
8061;BME280;4073;42.626;25.386;2023-03-03T13:22:11;97135.56;;;7.90;100.00
8061;BME280;4073;42.626;25.386;2023-03-03T13:24:55;97138.78;;;7.92;100.00
8061;BME280;4073;42.626;25.386;2023-03-03T13:27:26;97139.06;;;7.96;100.00
8061;BME280;4073;42.626;25.386;2023-03-03T13:30:00;97140.13;;;7.90;100.00
8061;BME280;4073;42.626;25.386;2023-03-03T13:35:06;97130.16;;;7.80;100.00
8061;BME280;4073;42.626;25.386;2023-03-03T13:37:44;97124.84;;;7.80;100.00
8061;BME280;4073;42.626;25.386;2023-03-03T13:43:18;97127.75;;;7.74;100.00
8061;BME280;4073;42.626;25.386;2023-03-03T13:54:15;97125.03;;;7.69;100.00
8061;BME280;4073;42.626;25.386;2023-03-03T13:57:18;97123.69;;;7.66;100.00
8061;BME280;4073;42.626;25.386;2023-03-03T14:00:11;97126.09;;;7.68;100.00
8061;BME280;4073;42.626;25.386;2023-03-03T14:02:57;97121.31;;;7.70;100.00
8061;BME280;4073;42.626;25.386;2023-03-03T14:05:43;97123.44;;;7.68;100.00
8061;BME280;4073;42.626;25.386;2023-03-03T14:11:18;97104.03;;;7.72;100.00
8061;BME280;4073;42.626;25.386;2023-03-03T14:16:40;97104.88;;;7.78;100.00
8061;BME280;4073;42.626;25.386;2023-03-03T14:25:04;97104.56;;;7.69;100.00
8061;BME280;4073;42.626;25.386;2023-03-03T14:38:35;97091.91;;;7.55;100.00
8061;BME280;4073;42.626;25.386;2023-03-03T14:46:30;97102.72;;;7.43;100.00
8061;BME280;4073;42.626;25.386;2023-03-03T14:49:02;97106.16;;;7.39;100.00
8061;BME280;4073;42.626;25.386;2023-03-03T14:56:59;97111.94;;;7.31;100.00
8061;BME280;4073;42.626;25.386;2023-03-03T14:59:25;97107.44;;;7.36;100.00
8061;BME280;4073;42.626;25.386;2023-03-03T15:04:27;97113.00;;;7.30;100.00
8061;BME280;4073;42.626;25.386;2023-03-03T15:06:55;97109.53;;;7.29;100.00
8061;BME280;4073;42.626;25.386;2023-03-03T15:11:54;97103.91;;;7.26;100.00
8061;BME280;4073;42.626;25.386;2023-03-03T15:16:52;97108.38;;;7.20;100.00
8061;BME280;4073;42.626;25.386;2023-03-03T15:22:00;97107.25;;;7.16;100.00
8061;BME280;4073;42.626;25.386;2023-03-03T15:27:09;97111.13;;;7.04;100.00
8061;BME280;4073;42.626;25.386;2023-03-03T15:30:31;97108.44;;;6.99;100.00
8061;BME280;4073;42.626;25.386;2023-03-03T15:33:12;97102.38;;;7.03;100.00
8061;BME280;4073;42.626;25.386;2023-03-03T15:40:47;97102.81;;;6.95;100.00
8061;BME280;4073;42.626;25.386;2023-03-03T15:43:34;97091.88;;;6.92;100.00
8061;BME280;4073;42.626;25.386;2023-03-03T15:46:14;97110.28;;;6.98;100.00
8061;BME280;4073;42.626;25.386;2023-03-03T15:54:38;97106.34;;;6.79;100.00
8061;BME280;4073;42.626;25.386;2023-03-03T16:02:57;97116.44;;;6.77;100.00
8061;BME280;4073;42.626;25.386;2023-03-03T16:05:45;97117.72;;;6.75;100.00
8061;BME280;4073;42.626;25.386;2023-03-03T16:08:18;97128.97;;;6.82;100.00
8061;BME280;4073;42.626;25.386;2023-03-03T16:23:59;97145.41;;;6.79;100.00
8061;BME280;4073;42.626;25.386;2023-03-03T16:32:23;97147.50;;;6.77;100.00
8061;BME280;4073;42.626;25.386;2023-03-03T16:37:44;97154.84;;;6.70;100.00
8061;BME280;4073;42.626;25.386;2023-03-03T16:40:25;97162.53;;;6.66;100.00
8061;BME280;4073;42.626;25.386;2023-03-03T16:45:35;97168.81;;;6.60;100.00
8061;BME280;4073;42.626;25.386;2023-03-03T16:48:12;97170.66;;;6.60;100.00
8061;BME280;4073;42.626;25.386;2023-03-03T16:51:02;97172.28;;;6.61;100.00
8061;BME280;4073;42.626;25.386;2023-03-03T16:56:22;97179.84;;;6.52;100.00
8061;BME280;4073;42.626;25.386;2023-03-03T17:04:53;97178.00;;;6.53;100.00
8061;BME280;4073;42.626;25.386;2023-03-03T17:09:56;97187.81;;;6.52;100.00
8061;BME280;4073;42.626;25.386;2023-03-03T17:15:33;97189.50;;;6.58;100.00
8061;BME280;4073;42.626;25.386;2023-03-03T17:18:19;97188.38;;;6.54;100.00
8061;BME280;4073;42.626;25.386;2023-03-03T17:20:51;97186.34;;;6.61;100.00
8061;BME280;4073;42.626;25.386;2023-03-03T17:40:02;97202.25;;;6.56;100.00
8061;BME280;4073;42.626;25.386;2023-03-03T17:43:03;97212.38;;;6.59;100.00
8061;BME280;4073;42.626;25.386;2023-03-03T17:45:34;97202.78;;;6.58;100.00
8061;BME280;4073;42.626;25.386;2023-03-03T17:53:55;97219.59;;;6.64;100.00
8061;BME280;4073;42.626;25.386;2023-03-03T18:13:46;97204.75;;;6.46;100.00
8061;BME280;4073;42.626;25.386;2023-03-03T18:26:50;97261.50;;;6.78;100.00
8061;BME280;4073;42.626;25.386;2023-03-03T18:34:40;97262.56;;;6.77;100.00
8061;BME280;4073;42.626;25.386;2023-03-03T18:39:48;97252.22;;;6.81;100.00
8061;BME280;4073;42.626;25.386;2023-03-03T18:44:40;97244.50;;;6.79;100.00
8061;BME280;4073;42.626;25.386;2023-03-03T18:47:10;97236.28;;;6.81;100.00